Time;durP1;ratioP1;P1;durP2;ratioP2;P2;SDS_P1;SDS_P2;PMS_P1;PMS_P2;Temp;Humidity;BMP_temperature;BMP_pressure;BME280_temperature;BME280_humidity;BME280_pressure;Samples;Min_cycle;Max_cycle;Signal;HPM_P1;HPM_P2
2022/03/09 00:00:13;;;;;;;19.93;10.10;;;5.60;99.90;;;;;;5064403;28;20954;-51
2022/03/09 00:02:40;;;;;;;18.20;9.13;;;5.60;99.90;;;;;;5064678;28;20741;-52
2022/03/09 00:05:07;;;;;;;19.17;8.87;;;5.60;99.90;;;;;;5049752;28;20477;-43
2022/03/09 00:07:34;;;;;;;21.43;10.47;;;5.50;99.90;;;;;;5025359;28;20453;-47
2022/03/09 00:10:01;;;;;;;18.60;10.30;;;5.40;99.90;;;;;;5024646;28;20456;-45
2022/03/09 00:12:29;;;;;;;19.63;11.17;;;5.40;99.90;;;;;;5026507;28;20504;-48
2022/03/09 00:14:56;;;;;;;20.93;9.37;;;5.30;99.90;;;;;;5026432;28;20433;-48
2022/03/09 00:17:22;;;;;;;17.10;9.13;;;5.30;99.90;;;;;;5026513;28;20519;-50
2022/03/09 00:19:49;;;;;;;19.83;8.60;;;5.30;99.90;;;;;;5026848;28;20469;-49
2022/03/09 00:22:16;;;;;;;20.60;9.17;;;5.30;99.90;;;;;;5027168;28;20511;-45
2022/03/09 00:24:43;;;;;;;13.27;8.20;;;5.30;99.90;;;;;;5026828;28;20488;-46
2022/03/09 00:27:10;;;;;;;19.60;8.40;;;5.30;99.90;;;;;;5027296;28;20482;-46
2022/03/09 00:29:38;;;;;;;14.20;7.57;;;5.30;99.90;;;;;;5026846;28;20449;-49
2022/03/09 00:32:06;;;;;;;21.57;9.10;;;5.20;99.90;;;;;;5026245;28;20511;-47
2022/03/09 00:34:33;;;;;;;14.13;8.50;;;5.20;99.90;;;;;;5026288;28;20608;-50
2022/03/09 00:37:00;;;;;;;15.03;9.00;;;5.20;99.90;;;;;;5026389;28;20492;-47
2022/03/09 00:39:27;;;;;;;16.73;9.67;;;5.20;99.90;;;;;;5026584;28;20441;-44
2022/03/09 00:41:53;;;;;;;15.63;9.43;;;5.20;99.90;;;;;;5026932;28;20537;-47
2022/03/09 00:44:20;;;;;;;18.30;10.07;;;5.20;99.90;;;;;;5028030;28;20491;-47
2022/03/09 00:46:48;;;;;;;16.93;8.80;;;5.20;99.90;;;;;;5029224;28;20441;-49
2022/03/09 00:49:16;;;;;;;17.73;8.93;;;5.20;99.90;;;;;;5030028;28;20929;-49
2022/03/09 00:51:42;;;;;;;17.67;9.57;;;5.20;99.90;;;;;;5029212;28;20453;-50
2022/03/09 00:54:09;;;;;;;16.50;8.57;;;5.20;99.90;;;;;;5030746;28;20448;-48
2022/03/09 00:56:36;;;;;;;15.40;8.83;;;5.20;99.90;;;;;;5030640;28;20449;-48
2022/03/09 00:59:03;;;;;;;17.90;8.40;;;5.10;99.90;;;;;;5030022;28;20465;-51
2022/03/09 01:01:29;;;;;;;17.13;9.87;;;5.10;99.90;;;;;;5030044;28;20473;-46
2022/03/09 01:03:57;;;;;;;17.70;9.13;;;5.10;99.90;;;;;;5030001;28;20484;-47
2022/03/09 01:06:24;;;;;;;15.67;9.03;;;5.10;99.90;;;;;;5030440;28;20453;-50
2022/03/09 01:08:51;;;;;;;14.87;7.90;;;5.10;99.90;;;;;;5029945;28;20449;-50
2022/03/09 01:11:18;;;;;;;13.20;7.60;;;5.00;99.90;;;;;;5030151;28;20448;-48
2022/03/09 01:13:44;;;;;;;15.10;8.80;;;5.00;99.90;;;;;;5029641;28;20469;-47
2022/03/09 01:16:12;;;;;;;15.27;9.33;;;4.90;99.90;;;;;;5030031;28;20456;-50
2022/03/09 01:18:38;;;;;;;14.83;8.43;;;4.90;99.90;;;;;;5030274;28;20453;-48
2022/03/09 01:21:07;;;;;;;16.40;9.93;;;4.90;99.90;;;;;;5030247;28;20448;-48
2022/03/09 01:23:34;;;;;;;12.83;7.43;;;4.90;99.90;;;;;;5029410;28;20974;-48
2022/03/09 01:26:00;;;;;;;13.37;8.37;;;4.90;99.90;;;;;;5030090;28;21024;-51
2022/03/09 01:28:27;;;;;;;14.90;8.23;;;4.90;99.90;;;;;;5030393;28;20445;-52
2022/03/09 01:30:54;;;;;;;13.70;9.27;;;4.90;99.90;;;;;;5030138;28;20476;-48
2022/03/09 01:33:20;;;;;;;11.70;7.60;;;4.90;99.90;;;;;;5029723;28;20483;-50
2022/03/09 01:35:47;;;;;;;19.13;8.50;;;4.80;99.90;;;;;;5029979;28;20520;-50
2022/03/09 01:38:15;;;;;;;20.00;8.43;;;4.80;99.90;;;;;;5030184;28;20567;-47
2022/03/09 01:40:42;;;;;;;15.70;8.93;;;4.80;99.90;;;;;;5031077;28;20473;-45
2022/03/09 01:43:08;;;;;;;18.53;9.30;;;4.80;99.90;;;;;;5030561;28;20440;-50
2022/03/09 01:45:36;;;;;;;18.13;7.80;;;4.80;99.90;;;;;;5030948;28;20949;-48
2022/03/09 01:48:03;;;;;;;16.13;8.83;;;4.80;99.90;;;;;;5030671;28;20457;-50
2022/03/09 01:50:29;;;;;;;13.80;8.03;;;4.80;99.90;;;;;;5030130;28;20506;-51
2022/03/09 01:52:56;;;;;;;14.93;8.73;;;4.70;99.90;;;;;;5029796;28;20760;-46
2022/03/09 01:55:24;;;;;;;15.47;9.07;;;4.70;99.90;;;;;;5029867;28;20445;-50
2022/03/09 01:57:51;;;;;;;14.80;8.20;;;4.60;99.90;;;;;;5029968;28;20484;-46
2022/03/09 02:00:18;;;;;;;15.27;8.57;;;4.60;99.90;;;;;;5030151;28;20463;-49
2022/03/09 02:02:45;;;;;;;17.57;8.10;;;4.60;99.90;;;;;;5029648;28;20504;-49
2022/03/09 02:05:12;;;;;;;16.60;10.30;;;4.50;99.90;;;;;;5029442;28;20837;-48
2022/03/09 02:10:25;;;;;;;14.40;7.97;;;4.50;99.90;;;;;;5031654;28;20441;-43
2022/03/09 02:12:51;;;;;;;15.80;8.83;;;4.50;99.90;;;;;;5031062;28;20492;-49
2022/03/09 02:15:18;;;;;;;15.43;9.60;;;4.50;99.90;;;;;;5031126;28;20468;-47
2022/03/09 02:17:45;;;;;;;13.73;8.30;;;4.40;99.90;;;;;;5030539;28;20524;-47
2022/03/09 02:20:12;;;;;;;19.63;9.90;;;4.40;99.90;;;;;;5030106;28;20477;-50
2022/03/09 02:22:42;;;;;;;14.50;8.97;;;4.40;99.90;;;;;;5031093;28;20453;-48
2022/03/09 02:25:10;;;;;;;14.50;9.63;;;4.30;99.90;;;;;;5031030;28;20484;-50
2022/03/09 02:27:38;;;;;;;16.50;10.63;;;4.30;99.90;;;;;;5031559;28;20471;-49
2022/03/09 02:30:06;;;;;;;24.00;11.17;;;4.20;99.90;;;;;;5031254;28;20445;-49
2022/03/09 02:32:33;;;;;;;18.37;10.53;;;4.20;99.90;;;;;;5031395;28;20789;-47
2022/03/09 02:34:59;;;;;;;17.93;11.30;;;4.20;99.90;;;;;;5031556;28;20437;-46
2022/03/09 02:37:26;;;;;;;21.93;10.53;;;4.10;99.90;;;;;;5030719;28;20499;-48
2022/03/09 02:39:54;;;;;;;15.63;10.67;;;4.10;99.90;;;;;;5031403;28;20968;-49
2022/03/09 02:42:21;;;;;;;22.37;13.50;;;4.10;99.90;;;;;;5030723;28;20472;-48
2022/03/09 02:44:47;;;;;;;14.77;9.93;;;4.00;99.90;;;;;;5031348;28;20489;-48
2022/03/09 02:47:14;;;;;;;18.20;11.37;;;4.00;99.90;;;;;;5031662;28;20464;-50
2022/03/09 02:49:41;;;;;;;21.80;10.60;;;4.00;99.90;;;;;;5031482;28;20430;-47
2022/03/09 02:52:07;;;;;;;21.60;11.57;;;4.00;99.90;;;;;;5031185;28;20453;-47
2022/03/09 02:54:34;;;;;;;21.63;10.90;;;4.00;99.90;;;;;;5030680;28;20464;-51
2022/03/09 02:57:03;;;;;;;24.40;11.43;;;4.00;99.90;;;;;;5031588;28;20445;-46
2022/03/09 02:59:30;;;;;;;24.17;12.47;;;4.00;99.90;;;;;;5031195;28;20982;-50
2022/03/09 03:01:57;;;;;;;18.20;10.83;;;4.00;99.90;;;;;;5031492;28;20457;-51
2022/03/09 03:04:23;;;;;;;17.57;12.30;;;3.90;99.90;;;;;;5031882;28;20496;-49
2022/03/09 03:06:50;;;;;;;21.23;12.17;;;3.90;99.90;;;;;;5030999;28;20452;-48
2022/03/09 03:09:17;;;;;;;24.00;12.27;;;3.80;99.90;;;;;;5031636;28;20461;-45
2022/03/09 03:11:45;;;;;;;23.10;11.30;;;3.80;99.90;;;;;;5031927;28;20429;-51
2022/03/09 03:14:13;;;;;;;16.27;10.23;;;3.80;99.90;;;;;;5031575;28;20452;-50
2022/03/09 03:16:40;;;;;;;22.43;10.63;;;3.80;99.90;;;;;;5031786;28;20453;-48
2022/03/09 03:19:07;;;;;;;26.13;13.83;;;3.70;99.90;;;;;;5031871;28;20483;-49
2022/03/09 03:21:34;;;;;;;24.93;12.67;;;3.80;99.90;;;;;;5031595;28;20480;-48
2022/03/09 03:24:01;;;;;;;23.20;11.60;;;3.80;99.90;;;;;;5032524;28;20516;-49
2022/03/09 03:26:28;;;;;;;17.50;10.80;;;3.70;99.90;;;;;;5031778;28;20492;-50
2022/03/09 03:28:55;;;;;;;19.67;11.50;;;3.60;99.90;;;;;;5031659;28;20452;-52
2022/03/09 03:31:23;;;;;;;20.60;12.90;;;3.60;99.90;;;;;;5032241;28;20441;-46
2022/03/09 03:33:49;;;;;;;18.97;11.73;;;3.50;99.90;;;;;;5032218;28;20421;-52
2022/03/09 03:36:16;;;;;;;18.27;11.20;;;3.50;99.90;;;;;;5032445;28;20449;-47
2022/03/09 03:38:44;;;;;;;19.70;11.40;;;3.50;99.90;;;;;;5032340;28;20464;-48
2022/03/09 03:41:10;;;;;;;20.70;12.47;;;3.40;99.90;;;;;;5032817;28;20895;-47
2022/03/09 03:43:37;;;;;;;34.47;11.17;;;3.40;99.90;;;;;;5032539;28;20491;-48
2022/03/09 03:46:04;;;;;;;21.53;12.23;;;3.30;99.90;;;;;;5032405;28;20477;-45
2022/03/09 03:48:32;;;;;;;25.00;12.30;;;3.40;99.90;;;;;;5031727;28;20543;-48
2022/03/09 03:50:58;;;;;;;22.30;12.27;;;3.40;99.90;;;;;;5031759;28;20476;-46
2022/03/09 03:53:25;;;;;;;23.23;10.97;;;3.40;99.90;;;;;;5032169;28;20460;-45
2022/03/09 03:55:55;;;;;;;24.17;12.00;;;3.40;99.90;;;;;;5032407;28;20931;-50
2022/03/09 03:58:21;;;;;;;18.87;11.60;;;3.40;99.90;;;;;;5032071;28;20469;-46
2022/03/09 04:00:48;;;;;;;26.53;10.93;;;3.40;99.90;;;;;;5032219;28;20453;-48
2022/03/09 04:03:15;;;;;;;15.80;10.77;;;3.40;99.90;;;;;;5032194;28;20476;-47
2022/03/09 04:05:43;;;;;;;21.33;10.80;;;3.40;99.90;;;;;;5031879;28;20499;-47
2022/03/09 04:08:09;;;;;;;19.60;10.33;;;3.40;99.90;;;;;;5032457;28;20453;-49
2022/03/09 04:10:36;;;;;;;20.83;11.40;;;3.30;99.90;;;;;;5032829;28;20469;-47
2022/03/09 04:13:04;;;;;;;15.53;9.53;;;3.30;99.90;;;;;;5032671;28;20425;-51
2022/03/09 04:15:31;;;;;;;20.33;11.30;;;3.30;99.90;;;;;;5032524;28;20445;-49
2022/03/09 04:17:58;;;;;;;21.33;11.03;;;3.30;99.90;;;;;;5032454;28;20551;-49
2022/03/09 04:20:25;;;;;;;14.13;9.73;;;3.30;99.90;;;;;;5032593;28;20481;-48
2022/03/09 04:22:53;;;;;;;16.23;8.80;;;3.30;99.90;;;;;;5031856;28;20464;-49
2022/03/09 04:25:20;;;;;;;21.50;10.80;;;3.30;99.90;;;;;;5032464;28;20562;-48
2022/03/09 04:27:46;;;;;;;17.53;8.70;;;3.40;99.90;;;;;;5032626;28;20523;-47
2022/03/09 04:30:13;;;;;;;16.83;10.20;;;3.30;99.90;;;;;;5032409;28;20445;-46
2022/03/09 04:32:40;;;;;;;18.97;9.50;;;3.30;99.90;;;;;;5033823;28;20546;-43
2022/03/09 04:35:07;;;;;;;17.20;8.60;;;3.30;99.90;;;;;;5035150;28;20434;-46
2022/03/09 04:37:34;;;;;;;14.53;8.77;;;3.40;99.90;;;;;;5035121;28;20441;-49
2022/03/09 04:40:04;;;;;;;20.13;9.70;;;3.40;99.90;;;;;;5034273;28;20453;-45
2022/03/09 04:42:31;;;;;;;15.70;8.90;;;3.40;99.90;;;;;;5034521;28;20471;-47
2022/03/09 04:44:58;;;;;;;25.73;10.53;;;3.50;99.90;;;;;;5034207;28;20484;-41
2022/03/09 04:47:24;;;;;;;12.80;9.53;;;3.50;99.90;;;;;;5034631;28;20492;-46
2022/03/09 04:49:51;;;;;;;15.33;9.87;;;3.50;99.90;;;;;;5034674;28;20495;-41
2022/03/09 04:52:18;;;;;;;15.50;8.90;;;3.60;99.90;;;;;;5034623;28;20524;-45
2022/03/09 04:54:45;;;;;;;14.03;9.00;;;3.60;99.90;;;;;;5034249;28;20476;-46
2022/03/09 04:57:13;;;;;;;14.57;8.27;;;3.60;99.90;;;;;;5034684;28;20444;-46
2022/03/09 04:59:40;;;;;;;21.97;10.63;;;3.60;99.90;;;;;;5034807;28;20441;-47
2022/03/09 05:02:06;;;;;;;15.47;9.20;;;3.60;99.90;;;;;;5034401;28;20460;-47
2022/03/09 05:04:33;;;;;;;18.67;9.97;;;3.60;99.90;;;;;;5035088;28;20432;-40
2022/03/09 05:07:00;;;;;;;16.30;9.27;;;3.50;99.90;;;;;;5033945;28;20488;-45
2022/03/09 05:09:27;;;;;;;19.60;9.50;;;3.50;99.90;;;;;;5034736;28;20448;-46
2022/03/09 05:11:54;;;;;;;18.23;8.40;;;3.50;99.90;;;;;;5034162;28;20473;-42
2022/03/09 05:14:25;;;;;;;13.43;9.57;;;3.50;99.90;;;;;;5034023;28;20448;-47
2022/03/09 05:16:51;;;;;;;14.27;9.13;;;3.50;99.90;;;;;;5033863;28;20421;-40
2022/03/09 05:19:19;;;;;;;16.43;9.40;;;3.50;99.90;;;;;;5033964;28;20422;-40
2022/03/09 05:21:48;;;;;;;19.60;9.40;;;3.50;99.90;;;;;;5034487;28;20512;-45
2022/03/09 05:24:16;;;;;;;12.00;8.50;;;3.50;99.90;;;;;;5034264;28;20476;-45
2022/03/09 05:26:43;;;;;;;18.50;8.57;;;3.60;99.90;;;;;;5033869;28;20536;-46
2022/03/09 05:29:12;;;;;;;12.70;7.73;;;3.60;99.90;;;;;;5033955;28;20477;-40
2022/03/09 05:31:40;;;;;;;14.80;8.73;;;3.60;99.90;;;;;;5037064;28;20449;-46
2022/03/09 05:34:07;;;;;;;17.47;8.67;;;3.70;99.90;;;;;;5035480;28;20507;-41
2022/03/09 05:36:33;;;;;;;16.60;7.43;;;3.70;99.90;;;;;;5029918;28;20441;-45
2022/03/09 05:39:00;;;;;;;12.23;7.43;;;3.70;99.90;;;;;;5036803;28;20472;-46
2022/03/09 05:41:27;;;;;;;13.07;8.40;;;3.70;99.90;;;;;;5036986;28;20523;-43
2022/03/09 05:43:53;;;;;;;10.63;7.03;;;3.80;99.90;;;;;;5037625;28;20507;-41
2022/03/09 05:46:20;;;;;;;14.20;7.97;;;3.80;99.90;;;;;;5031557;28;20499;-55
2022/03/09 05:48:48;;;;;;;14.63;7.77;;;3.90;99.90;;;;;;5037366;28;20505;-55
2022/03/09 05:51:15;;;;;;;17.73;9.40;;;3.90;99.90;;;;;;5037256;28;20476;-53
2022/03/09 05:53:42;;;;;;;15.60;7.70;;;3.90;99.90;;;;;;5037853;28;20476;-57
2022/03/09 05:56:10;;;;;;;14.57;7.47;;;3.90;99.90;;;;;;5038112;28;20529;-56
2022/03/09 05:58:39;;;;;;;17.43;9.60;;;3.90;99.90;;;;;;5038084;28;20791;-54
2022/03/09 06:01:06;;;;;;;12.20;8.00;;;3.90;99.90;;;;;;5038324;28;20444;-57
2022/03/09 06:03:33;;;;;;;12.73;6.93;;;4.00;99.90;;;;;;5038818;28;20441;-55
2022/03/09 06:06:01;;;;;;;16.40;8.90;;;4.00;99.90;;;;;;5038146;28;20477;-58
2022/03/09 06:08:27;;;;;;;9.43;7.20;;;4.00;99.90;;;;;;5038363;28;20449;-56
2022/03/09 06:10:55;;;;;;;11.37;7.70;;;4.00;99.90;;;;;;5037677;28;20453;-56
2022/03/09 06:13:22;;;;;;;12.17;8.43;;;4.00;99.90;;;;;;5037586;28;20517;-53
2022/03/09 06:15:49;;;;;;;12.43;7.50;;;4.00;99.90;;;;;;5037511;28;20437;-57
2022/03/09 06:18:16;;;;;;;12.07;7.20;;;4.00;99.90;;;;;;5041541;28;20456;-57
2022/03/09 06:20:43;;;;;;;13.97;7.73;;;4.10;99.90;;;;;;5045597;28;20437;-57
2022/03/09 06:23:11;;;;;;;17.93;7.93;;;4.10;99.90;;;;;;5027876;28;20448;-56
2022/03/09 06:25:37;;;;;;;11.30;8.03;;;4.10;99.90;;;;;;5031857;28;20488;-56
2022/03/09 06:28:05;;;;;;;22.23;7.57;;;4.10;99.90;;;;;;5043298;28;20525;-55
2022/03/09 06:30:31;;;;;;;15.33;8.17;;;4.10;99.90;;;;;;5054302;28;20448;-59
2022/03/09 06:32:58;;;;;;;16.17;8.43;;;4.20;99.90;;;;;;5054675;28;20538;-56
2022/03/09 06:35:25;;;;;;;12.20;8.20;;;4.20;99.90;;;;;;5055260;28;20456;-56
2022/03/09 06:37:52;;;;;;;14.23;7.90;;;4.20;99.90;;;;;;5048813;28;20449;-55
2022/03/09 06:40:21;;;;;;;11.43;8.30;;;4.20;99.90;;;;;;5048305;28;20476;-59
2022/03/09 06:42:48;;;;;;;17.37;9.70;;;4.20;99.90;;;;;;5039171;28;20516;-56
2022/03/09 06:45:15;;;;;;;13.43;8.70;;;4.30;99.90;;;;;;5046129;28;20975;-55
2022/03/09 06:47:43;;;;;;;14.87;8.50;;;4.30;99.90;;;;;;5046803;28;20464;-55
2022/03/09 06:50:11;;;;;;;13.57;8.83;;;4.30;99.90;;;;;;5046329;28;20448;-57
2022/03/09 06:52:38;;;;;;;10.90;7.90;;;4.40;99.90;;;;;;5044053;28;20457;-56
2022/03/09 06:55:07;;;;;;;12.07;7.87;;;4.40;99.90;;;;;;5041500;28;20475;-57
2022/03/09 06:57:37;;;;;;;14.50;9.87;;;4.40;99.90;;;;;;5039326;28;20472;-56
2022/03/09 07:00:05;;;;;;;13.47;9.47;;;4.50;99.90;;;;;;5041135;28;20521;-56
2022/03/09 07:02:32;;;;;;;12.77;9.50;;;4.50;99.90;;;;;;5052314;28;20475;-56
2022/03/09 07:04:59;;;;;;;12.63;8.63;;;4.50;99.90;;;;;;5053714;28;20539;-56
2022/03/09 07:07:26;;;;;;;17.70;8.73;;;4.60;99.90;;;;;;5053565;28;20511;-54
2022/03/09 07:09:52;;;;;;;14.57;9.10;;;4.70;99.90;;;;;;5053970;28;20472;-57
2022/03/09 07:12:19;;;;;;;19.60;9.30;;;4.70;99.90;;;;;;5053652;28;20506;-56
2022/03/09 07:14:47;;;;;;;18.83;9.27;;;4.80;99.90;;;;;;5053369;28;20464;-55
2022/03/09 07:17:15;;;;;;;17.70;9.87;;;4.80;99.90;;;;;;5053319;28;20444;-52
2022/03/09 07:19:42;;;;;;;13.47;7.90;;;4.90;99.90;;;;;;5052640;28;20538;-56
2022/03/09 07:22:09;;;;;;;14.37;8.37;;;4.90;99.90;;;;;;5052493;28;20428;-55
2022/03/09 07:24:36;;;;;;;13.00;8.77;;;5.00;99.90;;;;;;5052634;28;20440;-56
2022/03/09 07:27:04;;;;;;;17.40;9.00;;;5.00;99.90;;;;;;5051729;28;20479;-55
2022/03/09 07:29:31;;;;;;;20.80;8.60;;;5.10;99.90;;;;;;5051140;28;20466;-56
2022/03/09 07:31:59;;;;;;;15.83;8.80;;;5.10;99.90;;;;;;5050961;28;20552;-54
2022/03/09 07:34:26;;;;;;;14.30;9.07;;;5.20;99.90;;;;;;5033907;28;20452;-56
2022/03/09 07:36:57;;;;;;;13.73;8.80;;;5.30;99.90;;;;;;5050588;28;20499;-53
2022/03/09 07:39:26;;;;;;;14.13;9.10;;;5.40;99.90;;;;;;5049711;28;20428;-54
2022/03/09 07:41:53;;;;;;;17.53;9.37;;;5.40;99.90;;;;;;5050161;28;20448;-54
2022/03/09 07:44:20;;;;;;;17.53;8.90;;;5.50;99.90;;;;;;5049970;28;20428;-55
2022/03/09 07:46:46;;;;;;;19.23;9.53;;;5.60;99.90;;;;;;5050671;28;20530;-56
2022/03/09 07:49:15;;;;;;;11.50;8.47;;;5.70;99.90;;;;;;5050112;28;20482;-57
2022/03/09 07:51:41;;;;;;;16.10;9.10;;;5.80;99.90;;;;;;5049617;28;20444;-54
2022/03/09 07:54:08;;;;;;;17.30;10.00;;;5.90;99.90;;;;;;5048455;28;20522;-57
2022/03/09 07:56:35;;;;;;;11.63;8.73;;;6.00;99.90;;;;;;5049021;28;20444;-57
2022/03/09 07:59:02;;;;;;;15.90;8.93;;;6.10;99.90;;;;;;5048379;28;20555;-57
2022/03/09 08:01:29;;;;;;;14.30;9.30;;;6.20;99.90;;;;;;5048824;28;20433;-56
2022/03/09 08:03:55;;;;;;;13.67;9.80;;;6.30;99.90;;;;;;5048308;28;20455;-57
2022/03/09 08:06:24;;;;;;;11.47;8.90;;;6.40;99.90;;;;;;5048407;28;20476;-56
2022/03/09 08:08:50;;;;;;;17.93;9.90;;;6.50;99.90;;;;;;5048286;28;20820;-57
2022/03/09 08:11:17;;;;;;;14.57;10.00;;;6.60;99.90;;;;;;5048044;28;20495;-56
2022/03/09 08:13:44;;;;;;;21.40;10.20;;;6.80;99.90;;;;;;5047745;28;20459;-56
2022/03/09 08:16:11;;;;;;;18.83;9.93;;;6.80;99.90;;;;;;5047286;28;20464;-56
2022/03/09 08:18:38;;;;;;;18.97;9.70;;;6.90;99.90;;;;;;5047236;28;20456;-56
2022/03/09 08:21:05;;;;;;;18.23;9.50;;;7.00;99.90;;;;;;5046738;28;20464;-56
2022/03/09 08:23:33;;;;;;;16.07;10.90;;;7.10;99.90;;;;;;5046373;28;20429;-54
2022/03/09 08:25:59;;;;;;;17.57;9.63;;;7.20;99.90;;;;;;5046410;28;20440;-57
2022/03/09 08:28:26;;;;;;;14.37;9.47;;;7.30;99.90;;;;;;5046385;28;20459;-56
2022/03/09 08:30:54;;;;;;;13.70;8.40;;;7.40;99.90;;;;;;5046569;28;20450;-57
2022/03/09 08:33:21;;;;;;;11.80;7.77;;;7.50;99.90;;;;;;5046643;28;20516;-57
2022/03/09 08:35:48;;;;;;;12.97;6.90;;;7.50;99.90;;;;;;5046278;28;20444;-57
2022/03/09 08:38:15;;;;;;;10.70;8.90;;;7.60;99.90;;;;;;5045532;28;20511;-55
2022/03/09 08:40:43;;;;;;;11.83;7.53;;;7.80;99.90;;;;;;5045876;28;20475;-58
2022/03/09 08:43:10;;;;;;;10.43;6.63;;;7.80;99.90;;;;;;5045030;28;21002;-56
2022/03/09 08:45:38;;;;;;;8.37;5.07;;;8.00;99.90;;;;;;5045180;28;20436;-57
2022/03/09 08:48:06;;;;;;;10.93;6.20;;;8.10;99.90;;;;;;5044787;28;20503;-55
2022/03/09 08:50:33;;;;;;;22.43;6.77;;;8.20;99.90;;;;;;5045337;28;20463;-55
2022/03/09 08:53:00;;;;;;;15.77;5.60;;;8.30;99.90;;;;;;5044166;28;20511;-55
2022/03/09 08:55:27;;;;;;;8.80;5.53;;;8.40;99.90;;;;;;5043585;28;20483;-56
2022/03/09 08:57:55;;;;;;;11.40;5.83;;;8.60;99.90;;;;;;5043193;28;20458;-56
2022/03/09 09:00:22;;;;;;;9.80;5.40;;;9.10;99.90;;;;;;5040992;28;20952;-53
2022/03/09 09:02:48;;;;;;;10.30;4.70;;;10.60;99.90;;;;;;5039754;28;20440;-51
2022/03/09 09:05:15;;;;;;;13.70;5.57;;;12.70;99.90;;;;;;5040173;28;20452;-57
2022/03/09 09:07:42;;;;;;;7.10;4.97;;;15.00;91.00;;;;;;5042398;28;20559;-57
2022/03/09 09:10:10;;;;;;;8.50;5.97;;;17.10;75.80;;;;;;5042062;28;20464;-57
2022/03/09 09:12:36;;;;;;;11.40;5.70;;;19.20;62.50;;;;;;5041187;28;20455;-58
2022/03/09 09:15:05;;;;;;;9.27;5.70;;;20.70;52.90;;;;;;5040889;28;20936;-61
2022/03/09 09:17:32;;;;;;;9.80;6.03;;;22.00;48.30;;;;;;5040660;28;20479;-57
2022/03/09 09:19:59;;;;;;;10.50;6.00;;;23.20;45.80;;;;;;5040876;28;20448;-57
2022/03/09 09:22:26;;;;;;;8.03;4.47;;;24.00;42.00;;;;;;5041225;28;20472;-59
2022/03/09 09:24:52;;;;;;;9.10;5.10;;;24.50;39.90;;;;;;5041095;28;20428;-53
2022/03/09 09:27:19;;;;;;;6.80;5.00;;;25.00;38.60;;;;;;5041075;28;20495;-54
2022/03/09 09:29:46;;;;;;;8.90;5.30;;;25.40;37.30;;;;;;5040563;28;20447;-54
2022/03/09 09:32:16;;;;;;;9.83;5.67;;;25.40;36.40;;;;;;5040067;28;20928;-54
2022/03/09 09:34:43;;;;;;;12.87;6.50;;;24.20;36.20;;;;;;5040460;28;20482;-50
2022/03/09 09:37:09;;;;;;;8.23;5.00;;;22.50;37.20;;;;;;5041484;28;20527;-56
2022/03/09 09:39:36;;;;;;;12.07;5.53;;;20.90;38.90;;;;;;5041978;28;20468;-56
2022/03/09 09:42:03;;;;;;;6.77;4.60;;;19.50;40.40;;;;;;5041833;28;20455;-55
2022/03/09 09:44:30;;;;;;;13.33;5.37;;;18.30;41.80;;;;;;5042002;28;20452;-54
2022/03/09 09:46:57;;;;;;;7.40;4.13;;;17.20;43.30;;;;;;5042172;28;20464;-52
2022/03/09 09:49:25;;;;;;;5.90;4.07;;;16.70;44.90;;;;;;5041637;28;20496;-55
2022/03/09 09:51:54;;;;;;;7.43;4.70;;;17.10;45.60;;;;;;5041133;28;20460;-51
2022/03/09 09:54:24;;;;;;;7.23;4.13;;;17.90;44.50;;;;;;5041080;28;20452;-56
2022/03/09 09:56:51;;;;;;;5.33;4.00;;;18.70;43.70;;;;;;5041257;28;20490;-55
2022/03/09 09:59:17;;;;;;;7.50;5.00;;;19.50;42.40;;;;;;5040721;28;20456;-55
2022/03/09 10:01:44;;;;;;;11.33;4.53;;;20.60;41.60;;;;;;5040694;28;20476;-56
2022/03/09 10:04:11;;;;;;;7.70;4.90;;;21.50;39.90;;;;;;5040013;28;20459;-54
2022/03/09 10:06:39;;;;;;;8.93;4.50;;;22.30;39.50;;;;;;5040211;28;20483;-59
2022/03/09 10:09:08;;;;;;;7.63;3.97;;;22.70;38.60;;;;;;5039922;28;20929;-57
2022/03/09 10:11:53;;;;;;;9.70;5.00;;;23.10;38.00;;;;;;5040371;28;20445;-57
2022/03/09 10:14:41;;;;;;;8.73;5.10;;;22.90;37.70;;;;;;5040163;28;20758;-57
2022/03/09 10:17:10;;;;;;;11.03;6.50;;;22.80;38.10;;;;;;5039453;28;20531;-56
2022/03/09 10:19:40;;;;;;;9.70;5.90;;;22.60;37.40;;;;;;5039958;28;20487;-59
2022/03/09 10:22:29;;;;;;;16.77;6.00;;;22.40;37.60;;;;;;5040157;28;20440;-55
2022/03/09 10:25:00;;;;;;;14.00;6.27;;;22.20;37.90;;;;;;5040103;28;20472;-53
2022/03/09 10:27:39;;;;;;;11.37;7.63;;;22.10;38.40;;;;;;5039777;28;20487;-54
2022/03/09 10:30:08;;;;;;;13.17;5.60;;;22.10;38.00;;;;;;5039524;28;20472;-53
2022/03/09 10:32:50;;;;;;;13.80;6.60;;;21.90;38.90;;;;;;5039751;28;20451;-56
2022/03/09 10:35:18;;;;;;;11.53;7.20;;;21.90;38.90;;;;;;5039423;28;20484;-57
2022/03/09 10:37:48;;;;;;;11.17;7.50;;;21.80;38.10;;;;;;5040021;28;20452;-55
2022/03/09 10:40:18;;;;;;;9.37;6.50;;;21.50;38.40;;;;;;5039739;28;20445;-57
2022/03/09 10:42:45;;;;;;;9.47;7.03;;;21.30;38.80;;;;;;5039148;28;20461;-60
2022/03/09 10:45:13;;;;;;;9.93;6.60;;;21.30;39.10;;;;;;5040382;28;20445;-57
2022/03/09 10:47:42;;;;;;;11.70;7.77;;;21.10;38.60;;;;;;5039831;28;20567;-58
2022/03/09 10:50:14;;;;;;;11.23;7.00;;;20.90;38.60;;;;;;5039896;28;20509;-57
2022/03/09 10:52:53;;;;;;;9.47;6.70;;;20.80;39.20;;;;;;5039276;28;20460;-57
2022/03/09 10:55:22;;;;;;;12.90;6.93;;;20.60;39.20;;;;;;5039835;28;20452;-55
2022/03/09 10:57:49;;;;;;;11.97;6.37;;;20.40;39.90;;;;;;5039565;28;20464;-55
2022/03/09 11:00:16;;;;;;;13.63;6.90;;;20.30;39.70;;;;;;5039139;28;20519;-54
2022/03/09 11:02:49;;;;;;;15.07;5.73;;;20.20;39.80;;;;;;5039514;28;20941;-56
2022/03/09 11:05:17;;;;;;;8.50;6.20;;;19.90;39.50;;;;;;5039369;28;20479;-54
2022/03/09 11:07:44;;;;;;;11.03;6.30;;;19.50;39.60;;;;;;5039361;28;20586;-55
2022/03/09 11:10:13;;;;;;;9.87;6.00;;;19.30;41.00;;;;;;5039081;28;20809;-54
2022/03/09 11:12:40;;;;;;;10.23;5.57;;;19.10;40.70;;;;;;5039376;28;20909;-56
2022/03/09 11:15:08;;;;;;;16.43;5.80;;;18.90;40.80;;;;;;5039362;28;20472;-54
2022/03/09 11:17:35;;;;;;;11.17;6.97;;;18.70;41.60;;;;;;5039216;28;20777;-56
2022/03/09 11:20:03;;;;;;;8.53;4.40;;;18.60;41.10;;;;;;5039209;28;20479;-53
2022/03/09 11:22:29;;;;;;;7.93;5.70;;;18.40;41.10;;;;;;5039497;28;20448;-55
2022/03/09 11:24:58;;;;;;;7.80;4.57;;;18.10;41.20;;;;;;5039105;28;20455;-57
2022/03/09 11:27:27;;;;;;;16.33;6.60;;;17.80;42.00;;;;;;5038649;28;20964;-56
2022/03/09 11:29:57;;;;;;;19.73;5.90;;;17.60;42.20;;;;;;5039132;28;20441;-55
2022/03/09 11:32:34;;;;;;;13.27;4.67;;;17.30;42.00;;;;;;5039607;28;20547;-52
2022/03/09 11:35:01;;;;;;;7.50;5.33;;;16.90;42.70;;;;;;5039853;28;20432;-56
2022/03/09 11:37:38;;;;;;;8.97;4.37;;;16.50;43.30;;;;;;5039410;28;20495;-54
2022/03/09 11:40:14;;;;;;;10.00;4.70;;;16.30;44.10;;;;;;5039705;28;20424;-56
2022/03/09 11:42:44;;;;;;;7.13;4.47;;;16.00;44.20;;;;;;5039834;28;20479;-51
2022/03/09 11:45:33;;;;;;;6.30;4.63;;;15.80;44.00;;;;;;5039054;28;20452;-56
2022/03/09 11:48:04;;;;;;;7.90;4.20;;;15.50;44.60;;;;;;5039518;28;20546;-56
2022/03/09 11:50:33;;;;;;;7.13;4.27;;;15.30;44.90;;;;;;5039190;28;20480;-55
2022/03/09 11:53:03;;;;;;;7.77;4.60;;;15.20;45.10;;;;;;5039318;28;20534;-55
2022/03/09 11:55:30;;;;;;;8.40;4.43;;;15.10;44.90;;;;;;5039356;28;20444;-56
2022/03/09 11:58:12;;;;;;;7.00;4.20;;;14.90;44.80;;;;;;5039744;28;20455;-55
2022/03/09 12:00:41;;;;;;;7.37;5.20;;;14.70;45.40;;;;;;5039660;28;20479;-55
2022/03/09 12:03:08;;;;;;;10.37;5.20;;;14.60;45.50;;;;;;5039709;28;20467;-52
2022/03/09 12:05:38;;;;;;;7.70;4.20;;;14.60;45.70;;;;;;5039499;28;20440;-56
2022/03/09 12:08:06;;;;;;;6.90;4.63;;;14.40;46.00;;;;;;5039335;28;20487;-56
2022/03/09 12:10:50;;;;;;;12.47;4.23;;;14.30;45.60;;;;;;5039162;28;20476;-56
2022/03/09 12:13:33;;;;;;;9.73;4.87;;;14.30;46.20;;;;;;5039564;28;20471;-55
2022/03/09 12:16:17;;;;;;;7.87;4.27;;;14.20;46.40;;;;;;5039431;28;20952;-57
2022/03/09 12:19:00;;;;;;;9.57;4.73;;;14.20;46.00;;;;;;5039243;28;20916;-57
2022/03/09 12:22:04;;;;;;;7.30;4.30;;;14.10;45.50;;;;;;5035938;28;20503;-57
2022/03/09 12:24:39;;;;;;;6.07;4.33;;;14.10;45.90;;;;;;5039267;28;20928;-54
2022/03/09 12:27:27;;;;;;;9.63;5.70;;;14.10;45.70;;;;;;5039706;28;20559;-53
2022/03/09 12:29:55;;;;;;;7.80;5.67;;;14.10;46.40;;;;;;5039487;28;20439;-56
2022/03/09 12:32:23;;;;;;;8.20;4.70;;;14.20;46.50;;;;;;5039565;28;20471;-55
2022/03/09 12:34:51;;;;;;;7.97;4.27;;;14.20;46.70;;;;;;5039757;28;20507;-52
2022/03/09 12:37:22;;;;;;;7.73;5.13;;;14.20;46.50;;;;;;5039070;28;20934;-56
2022/03/09 12:40:03;;;;;;;8.63;4.20;;;14.20;45.90;;;;;;5042471;28;20462;-57
2022/03/09 12:42:31;;;;;;;8.50;4.43;;;14.30;45.80;;;;;;5042032;28;20478;-59
2022/03/09 12:45:01;;;;;;;6.20;3.90;;;14.20;45.50;;;;;;5041708;28;20482;-61
2022/03/09 12:47:28;;;;;;;7.07;4.07;;;14.10;46.30;;;;;;5042081;28;20550;-59
2022/03/09 12:49:55;;;;;;;8.50;4.60;;;14.10;46.40;;;;;;5041644;28;20517;-59